createdAt,value
2018-09-14T00:01:46.369Z,12.90
2018-09-14T00:04:14.695Z,12.70
2018-09-14T00:06:43.053Z,12.80
2018-09-14T00:09:12.740Z,12.90
2018-09-14T00:11:41.266Z,12.90
2018-09-14T00:14:09.595Z,12.80
2018-09-14T00:16:38.225Z,13.00
2018-09-14T00:19:06.607Z,13.00
2018-09-14T00:21:35.028Z,13.00
2018-09-14T00:24:03.412Z,12.90
2018-09-14T00:26:31.814Z,12.80
2018-09-14T00:29:00.170Z,12.80
2018-09-14T00:31:28.550Z,12.90
2018-09-14T00:33:56.868Z,12.90
2018-09-14T00:36:25.181Z,12.90
2018-09-14T00:38:53.497Z,12.90
2018-09-14T00:41:21.829Z,12.80
2018-09-14T00:43:50.164Z,12.80
2018-09-14T00:46:18.504Z,12.70
2018-09-14T00:48:46.821Z,12.70
2018-09-14T00:51:15.136Z,12.70
2018-09-14T00:53:43.445Z,12.60
2018-09-14T00:56:13.001Z,12.60
2018-09-14T00:58:41.342Z,12.60
2018-09-14T01:01:10.449Z,12.60
2018-09-14T01:03:38.840Z,12.40
2018-09-14T01:06:07.732Z,12.40
2018-09-14T01:08:36.926Z,12.40
2018-09-14T01:11:05.289Z,12.40
2018-09-14T01:13:33.620Z,12.40
2018-09-14T01:16:02.003Z,12.40
2018-09-14T01:18:30.321Z,12.40
2018-09-14T01:20:59.349Z,12.30
2018-09-14T01:23:27.692Z,12.30
2018-09-14T01:25:56.105Z,12.20
2018-09-14T01:28:24.484Z,12.20
2018-09-14T01:30:52.819Z,12.10
2018-09-14T01:33:21.137Z,11.90
2018-09-14T01:35:54.785Z,11.80
2018-09-14T01:38:23.125Z,11.70
2018-09-14T01:40:51.462Z,11.60
2018-09-14T01:43:19.930Z,11.50
2018-09-14T01:45:48.227Z,11.70
2018-09-14T01:48:16.551Z,11.70
2018-09-14T01:50:44.876Z,11.60
2018-09-14T01:53:13.247Z,11.60
2018-09-14T01:55:41.609Z,11.60
2018-09-14T01:58:09.929Z,11.60
2018-09-14T02:00:38.312Z,11.60
2018-09-14T02:03:06.636Z,11.70
2018-09-14T02:05:34.981Z,11.70
2018-09-14T02:08:03.347Z,11.60
2018-09-14T02:10:31.636Z,11.60
2018-09-14T02:12:59.957Z,11.60
2018-09-14T02:15:28.268Z,11.60
2018-09-14T02:17:56.597Z,11.60
2018-09-14T02:20:24.942Z,11.70
2018-09-14T02:22:53.915Z,11.70
2018-09-14T02:25:22.258Z,11.70
2018-09-14T02:27:51.513Z,11.70
2018-09-14T02:30:19.815Z,11.70
2018-09-14T02:32:48.102Z,11.70
2018-09-14T02:35:16.445Z,11.60
2018-09-14T02:37:44.773Z,11.40
2018-09-14T02:40:13.116Z,11.30
2018-09-14T02:42:41.420Z,11.20
2018-09-14T02:45:09.750Z,10.90
2018-09-14T02:47:38.084Z,11.00
2018-09-14T02:50:06.450Z,11.10
2018-09-14T02:52:34.761Z,11.00
2018-09-14T02:55:03.150Z,11.00
2018-09-14T02:57:31.447Z,11.10
2018-09-14T02:59:59.834Z,10.90
2018-09-14T03:02:28.185Z,10.90
2018-09-14T03:04:56.510Z,10.90
2018-09-14T03:07:24.856Z,10.80
2018-09-14T03:09:53.192Z,10.80
2018-09-14T03:12:21.536Z,10.80
2018-09-14T03:14:49.902Z,10.70
2018-09-14T03:17:19.292Z,10.70
2018-09-14T03:19:47.617Z,10.60
2018-09-14T03:22:15.933Z,9.90
2018-09-14T03:24:44.247Z,9.60
2018-09-14T03:27:12.605Z,9.60
2018-09-14T03:29:40.916Z,9.80
2018-09-14T03:32:09.255Z,9.90
2018-09-14T03:34:37.563Z,10.00
2018-09-14T03:37:06.087Z,10.00
2018-09-14T03:39:34.420Z,9.70
2018-09-14T03:42:03.327Z,9.80
2018-09-14T03:44:32.305Z,10.00
2018-09-14T03:47:00.656Z,10.10
2018-09-14T03:49:29.029Z,10.30
2018-09-14T03:51:57.386Z,10.30
2018-09-14T03:54:25.712Z,10.00
2018-09-14T03:56:54.009Z,9.70
2018-09-14T03:59:22.468Z,9.90
2018-09-14T04:01:50.773Z,9.90
2018-09-14T04:04:19.116Z,9.80
2018-09-14T04:06:47.442Z,9.80
2018-09-14T04:09:15.791Z,9.90
2018-09-14T04:11:44.113Z,10.10
2018-09-14T04:14:12.494Z,10.00
2018-09-14T04:16:41.353Z,10.10
2018-09-14T04:19:09.688Z,10.20
2018-09-14T04:21:38.000Z,10.30
2018-09-14T04:24:06.376Z,10.40
2018-09-14T04:26:34.699Z,10.50
2018-09-14T04:29:03.054Z,10.40
2018-09-14T04:31:32.379Z,10.50
2018-09-14T04:34:01.308Z,10.50
2018-09-14T04:36:29.633Z,10.50
2018-09-14T04:38:57.958Z,10.60
2018-09-14T04:41:26.316Z,10.70
2018-09-14T04:43:54.653Z,10.70
2018-09-14T04:46:22.985Z,10.70
2018-09-14T04:48:51.301Z,10.80
2018-09-14T04:51:19.671Z,10.80
2018-09-14T04:53:47.964Z,10.80
2018-09-14T04:56:16.296Z,10.70
2018-09-14T04:58:44.664Z,10.70
2018-09-14T05:01:12.985Z,10.80
2018-09-14T05:03:41.316Z,10.90
2018-09-14T05:06:09.669Z,10.90
2018-09-14T05:08:37.992Z,11.00
2018-09-14T05:11:07.752Z,11.00
2018-09-14T05:13:36.096Z,11.10
2018-09-14T05:16:04.800Z,11.10
2018-09-14T05:18:33.268Z,11.10
2018-09-14T05:21:04.273Z,11.10
2018-09-14T05:23:32.811Z,11.10
2018-09-14T05:26:01.966Z,11.10
2018-09-14T05:28:30.360Z,11.20
2018-09-14T05:31:03.151Z,11.30
2018-09-14T05:33:32.485Z,11.30
2018-09-14T05:36:01.233Z,11.40
2018-09-14T05:38:29.549Z,11.30
2018-09-14T05:40:57.912Z,11.50
2018-09-14T05:43:26.237Z,11.50
2018-09-14T05:45:54.590Z,11.50
2018-09-14T05:48:24.837Z,11.50
2018-09-14T05:50:53.233Z,11.50
2018-09-14T05:53:21.587Z,11.60
2018-09-14T05:55:49.911Z,11.70
2018-09-14T05:58:18.215Z,11.70
2018-09-14T06:00:46.597Z,11.80
2018-09-14T06:03:15.307Z,11.80
2018-09-14T06:05:43.701Z,11.90
2018-09-14T06:08:12.025Z,11.90
2018-09-14T06:10:40.333Z,11.90
2018-09-14T06:13:08.725Z,11.90
2018-09-14T06:15:45.441Z,12.00
2018-09-14T06:18:14.403Z,12.10
2018-09-14T06:20:52.957Z,12.10
2018-09-14T06:23:21.861Z,12.20
2018-09-14T06:25:51.088Z,12.30
2018-09-14T06:28:19.508Z,12.30
2018-09-14T06:30:48.509Z,12.20
2018-09-14T06:33:16.837Z,12.40
2018-09-14T06:35:45.153Z,12.40
2018-09-14T06:38:14.135Z,12.50
2018-09-14T06:40:42.465Z,12.60
2018-09-14T06:43:10.779Z,12.60
2018-09-14T06:45:39.106Z,12.60
2018-09-14T06:48:07.442Z,12.70
2018-09-14T06:50:35.760Z,12.70
2018-09-14T06:53:04.650Z,12.70
2018-09-14T06:55:33.000Z,12.80
2018-09-14T06:58:01.342Z,13.00
2018-09-14T07:00:29.790Z,13.00
2018-09-14T07:02:58.005Z,13.00
2018-09-14T07:05:26.344Z,13.00
2018-09-14T07:07:54.678Z,13.10
2018-09-14T07:10:23.020Z,13.20
2018-09-14T07:12:51.328Z,13.30
2018-09-14T07:15:19.643Z,13.30
2018-09-14T07:17:47.963Z,13.40
2018-09-14T07:20:18.282Z,13.40
2018-09-14T07:22:46.632Z,13.40
2018-09-14T07:25:15.024Z,13.40
2018-09-14T07:27:43.375Z,13.40
2018-09-14T07:30:11.813Z,13.50
2018-09-14T07:32:40.176Z,13.60
2018-09-14T07:35:08.489Z,13.60
2018-09-14T07:37:36.832Z,13.70
2018-09-14T07:40:05.172Z,13.70
2018-09-14T07:42:33.623Z,13.70
2018-09-14T07:45:01.961Z,13.70
2018-09-14T07:47:30.286Z,13.60
2018-09-14T07:49:58.589Z,13.70
2018-09-14T07:52:26.968Z,13.90
2018-09-14T07:54:55.296Z,14.00
2018-09-14T07:57:23.626Z,14.00
2018-09-14T07:59:51.973Z,14.10
2018-09-14T08:02:20.584Z,14.00
2018-09-14T08:04:49.009Z,14.00
2018-09-14T08:07:17.355Z,14.00
2018-09-14T08:09:46.509Z,14.10
2018-09-14T08:12:14.974Z,14.00
2018-09-14T08:14:43.304Z,13.90
2018-09-14T08:17:11.665Z,14.20
2018-09-14T08:19:40.013Z,14.20
2018-09-14T08:22:08.313Z,14.20
2018-09-14T08:24:36.668Z,14.40
2018-09-14T08:27:05.035Z,14.40
2018-09-14T08:29:33.356Z,14.60
2018-09-14T08:32:01.692Z,14.70
2018-09-14T08:34:30.023Z,14.60
2018-09-14T08:36:58.360Z,14.60
2018-09-14T08:39:26.690Z,14.70
2018-09-14T08:41:55.029Z,14.70
2018-09-14T08:44:23.345Z,14.80
2018-09-14T08:46:51.758Z,14.90
2018-09-14T08:49:20.076Z,15.20
2018-09-14T08:51:48.435Z,15.50
2018-09-14T08:54:16.759Z,15.70
2018-09-14T08:56:45.129Z,15.90
2018-09-14T08:59:13.495Z,15.90
2018-09-14T09:01:41.953Z,15.90
2018-09-14T09:04:10.273Z,15.90
2018-09-14T09:06:38.601Z,15.90
2018-09-14T09:09:09.653Z,15.80
2018-09-14T09:11:37.929Z,15.90
2018-09-14T09:14:06.553Z,16.00
2018-09-14T09:16:34.897Z,16.40
2018-09-14T09:19:03.425Z,16.70
2018-09-14T09:21:31.757Z,16.90
2018-09-14T09:24:00.239Z,17.00
2018-09-14T09:26:28.899Z,17.20
2018-09-14T09:28:57.530Z,17.30
2018-09-14T09:31:25.867Z,17.40
2018-09-14T09:33:54.272Z,17.50
2018-09-14T09:36:22.625Z,17.50
2018-09-14T09:38:51.798Z,17.60
2018-09-14T09:41:20.113Z,17.50
2018-09-14T09:43:48.501Z,17.50
2018-09-14T09:46:16.764Z,17.70
2018-09-14T09:48:45.150Z,17.70
2018-09-14T09:51:13.560Z,18.00
2018-09-14T09:53:41.897Z,18.00
2018-09-14T09:56:10.897Z,17.80
2018-09-14T09:58:40.851Z,17.90
2018-09-14T10:01:14.408Z,18.20
2018-09-14T10:03:44.903Z,18.40
2018-09-14T10:06:19.453Z,18.70
2018-09-14T10:08:47.800Z,18.60
2018-09-14T10:11:16.107Z,18.20
2018-09-14T10:13:44.452Z,18.30
2018-09-14T10:16:12.771Z,18.60
2018-09-14T10:18:41.114Z,18.80
2018-09-14T10:21:09.483Z,19.30
2018-09-14T10:23:37.777Z,19.30
2018-09-14T10:26:07.319Z,19.00
2018-09-14T10:28:35.631Z,18.90
2018-09-14T10:31:03.963Z,19.10
2018-09-14T10:33:32.331Z,19.30
2018-09-14T10:36:00.867Z,19.80
2018-09-14T10:38:29.862Z,20.00
2018-09-14T10:40:58.208Z,19.60
2018-09-14T10:43:26.546Z,20.00
2018-09-14T10:45:54.884Z,20.30
2018-09-14T10:48:23.188Z,20.90
2018-09-14T10:50:51.524Z,21.10
2018-09-14T10:53:19.836Z,21.00
2018-09-14T10:55:48.153Z,20.80
2018-09-14T10:58:16.453Z,20.80
2018-09-14T11:00:45.215Z,21.30
2018-09-14T11:03:13.520Z,21.50
2018-09-14T11:05:41.851Z,21.30
2018-09-14T11:08:10.165Z,21.10
2018-09-14T11:10:38.504Z,20.70
2018-09-14T11:13:06.862Z,20.80
2018-09-14T11:15:35.165Z,20.30
2018-09-14T11:18:03.499Z,20.70
2018-09-14T11:20:31.849Z,20.90
2018-09-14T11:23:00.147Z,21.10
2018-09-14T11:25:28.520Z,21.40
2018-09-14T11:27:56.839Z,21.30
2018-09-14T11:30:25.106Z,20.80
2018-09-14T11:32:53.409Z,20.80
2018-09-14T11:35:21.739Z,20.70
2018-09-14T11:37:50.156Z,20.80
2018-09-14T11:40:18.426Z,21.70
2018-09-14T11:42:46.732Z,20.70
2018-09-14T11:45:15.072Z,20.40
2018-09-14T11:47:43.368Z,20.40
2018-09-14T11:50:11.733Z,20.00
2018-09-14T11:52:40.073Z,20.10
2018-09-14T11:55:08.393Z,20.20
2018-09-14T11:57:36.752Z,20.50
2018-09-14T12:00:05.151Z,21.20
2018-09-14T12:02:33.480Z,21.70
2018-09-14T12:05:01.807Z,22.20
2018-09-14T12:07:34.340Z,22.20
2018-09-14T12:10:02.753Z,21.80
2018-09-14T12:12:34.021Z,20.70
2018-09-14T12:15:02.388Z,20.60
2018-09-14T12:17:30.787Z,21.30
2018-09-14T12:20:05.885Z,21.40
2018-09-14T12:22:34.260Z,21.90
2018-09-14T12:25:02.596Z,22.20
2018-09-14T12:27:30.922Z,22.60
2018-09-14T12:29:59.254Z,22.00
2018-09-14T12:32:27.564Z,22.00
2018-09-14T12:34:55.872Z,21.90
2018-09-14T12:37:24.221Z,22.10
2018-09-14T12:39:59.229Z,22.90
2018-09-14T12:42:27.580Z,23.70
2018-09-14T12:44:55.869Z,23.80
2018-09-14T12:47:24.575Z,23.80
2018-09-14T12:49:52.877Z,24.30
2018-09-14T12:52:21.209Z,24.20
2018-09-14T12:54:49.537Z,23.70
2018-09-14T12:57:17.850Z,23.30
2018-09-14T12:59:46.178Z,23.60
2018-09-14T13:02:14.504Z,23.80
2018-09-14T13:04:42.809Z,23.30
2018-09-14T13:07:11.186Z,23.00
2018-09-14T13:09:39.525Z,24.00
2018-09-14T13:12:08.457Z,24.00
2018-09-14T13:14:36.771Z,23.30
2018-09-14T13:17:09.316Z,23.80
2018-09-14T13:19:37.741Z,24.30
2018-09-14T13:22:06.301Z,23.50
2018-09-14T13:24:34.660Z,22.50
2018-09-14T13:27:02.972Z,22.30
2018-09-14T13:29:31.297Z,23.10
2018-09-14T13:31:59.645Z,23.40
2018-09-14T13:34:27.951Z,24.10
2018-09-14T13:36:56.282Z,25.30
2018-09-14T13:39:24.600Z,25.30
2018-09-14T13:41:52.929Z,24.20
2018-09-14T13:44:21.254Z,23.60
2018-09-14T13:46:49.569Z,23.80
2018-09-14T13:49:18.855Z,23.70
2018-09-14T13:51:47.139Z,24.60
2018-09-14T13:54:16.137Z,24.70
2018-09-14T13:56:44.457Z,24.30
2018-09-14T13:59:12.812Z,24.80
2018-09-14T14:01:41.252Z,25.40
2018-09-14T14:04:11.004Z,24.90
2018-09-14T14:06:39.336Z,24.80
2018-09-14T14:09:09.587Z,24.50
2018-09-14T14:11:38.269Z,24.50
2018-09-14T14:14:06.809Z,24.40
2018-09-14T14:16:35.715Z,24.40
2018-09-14T14:19:04.054Z,24.70
2018-09-14T14:21:32.389Z,24.60
2018-09-14T14:24:01.418Z,23.90
2018-09-14T14:26:29.927Z,23.50
2018-09-14T14:28:59.138Z,24.50
2018-09-14T14:31:27.502Z,24.50
2018-09-14T14:33:55.817Z,24.10
2018-09-14T14:36:24.335Z,24.20
2018-09-14T14:38:53.686Z,25.20
2018-09-14T14:41:22.133Z,24.60
2018-09-14T14:43:51.062Z,24.60
2018-09-14T14:46:21.216Z,24.70
2018-09-14T14:48:49.620Z,24.80
2018-09-14T14:51:19.208Z,25.20
2018-09-14T14:53:47.612Z,25.40
2018-09-14T14:56:15.968Z,24.70
2018-09-14T14:58:44.301Z,24.80
2018-09-14T15:01:12.670Z,26.50
2018-09-14T15:03:40.972Z,26.60
2018-09-14T15:06:09.278Z,26.10
2018-09-14T15:08:37.606Z,26.00
2018-09-14T15:11:07.950Z,26.50
2018-09-14T15:13:36.375Z,25.50
2018-09-14T15:16:05.247Z,25.60
2018-09-14T15:18:33.580Z,25.50
2018-09-14T15:21:01.941Z,25.30
2018-09-14T15:23:30.271Z,25.10
2018-09-14T15:25:58.573Z,25.10
2018-09-14T15:28:26.886Z,25.00
2018-09-14T15:30:55.192Z,24.90
2018-09-14T15:33:23.832Z,25.30
2018-09-14T15:35:52.291Z,25.50
2018-09-14T15:38:30.406Z,25.60
2018-09-14T15:44:13.612Z,25.30
2018-09-14T15:46:42.004Z,25.10
2018-09-14T15:49:14.509Z,25.40
2018-09-14T15:51:42.952Z,25.00
2018-09-14T15:54:11.255Z,25.10
2018-09-14T15:56:40.359Z,25.20
2018-09-14T15:59:15.352Z,24.90
2018-09-14T16:01:43.673Z,24.70
2018-09-14T16:04:12.999Z,24.10
2018-09-14T16:06:41.421Z,24.10
2018-09-14T16:09:10.679Z,23.70
2018-09-14T16:11:39.106Z,23.40
2018-09-14T16:14:07.525Z,23.30
2018-09-14T16:16:35.878Z,23.20
2018-09-14T16:19:04.575Z,22.80
2018-09-14T16:21:33.070Z,22.50
2018-09-14T16:24:01.396Z,22.40
2018-09-14T16:26:29.781Z,22.50
2018-09-14T16:28:58.241Z,22.90
2018-09-14T16:31:27.239Z,22.80
2018-09-14T16:33:55.577Z,22.40
2018-09-14T16:36:26.176Z,22.00
2018-09-14T16:38:54.534Z,21.70
2018-09-14T16:41:22.845Z,21.70
2018-09-14T16:43:52.209Z,21.40
2018-09-14T16:46:20.582Z,21.20
2018-09-14T16:48:48.915Z,20.90
2018-09-14T16:51:17.467Z,20.70
2018-09-14T16:53:46.520Z,20.50
2018-09-14T16:56:14.857Z,20.30
2018-09-14T16:58:43.160Z,20.20
2018-09-14T17:01:11.479Z,20.00
2018-09-14T17:03:39.824Z,19.90
2018-09-14T17:06:08.696Z,20.00
2018-09-14T17:08:37.125Z,20.00
2018-09-14T17:11:05.483Z,20.00
2018-09-14T17:13:33.792Z,19.60
2018-09-14T17:16:02.190Z,19.50
2018-09-14T17:18:30.498Z,19.40
2018-09-14T17:20:59.132Z,19.20
2018-09-14T17:23:27.440Z,19.20
2018-09-14T17:25:55.782Z,19.10
2018-09-14T17:28:24.081Z,19.10
2018-09-14T17:30:52.411Z,19.10
2018-09-14T17:33:20.738Z,19.00
2018-09-14T17:35:49.062Z,18.90
2018-09-14T17:38:17.466Z,18.70
2018-09-14T17:40:45.720Z,18.70
2018-09-14T17:43:14.123Z,18.50
2018-09-14T17:45:42.512Z,18.40
2018-09-14T17:48:10.845Z,18.40
2018-09-14T17:50:39.296Z,18.30
2018-09-14T17:53:07.616Z,18.20
2018-09-14T17:55:36.005Z,18.10
2018-09-14T17:58:04.333Z,18.10
2018-09-14T18:00:32.762Z,18.10
2018-09-14T18:03:01.071Z,18.00
2018-09-14T18:05:29.445Z,18.00
2018-09-14T18:07:58.021Z,17.80
2018-09-14T18:10:26.348Z,17.80
2018-09-14T18:12:54.737Z,17.70
2018-09-14T18:15:23.395Z,17.60
2018-09-14T18:17:51.720Z,17.50
2018-09-14T18:20:20.048Z,17.40
2018-09-14T18:22:48.357Z,17.40
2018-09-14T18:25:16.841Z,17.30
2018-09-14T18:27:45.280Z,17.30
2018-09-14T18:30:13.470Z,17.20
2018-09-14T18:32:41.921Z,17.10
2018-09-14T18:35:10.253Z,17.20
2018-09-14T18:37:38.741Z,17.30
2018-09-14T18:40:07.107Z,17.30
2018-09-14T18:42:37.752Z,17.30
2018-09-14T18:45:06.116Z,17.20
2018-09-14T18:47:34.431Z,17.20
2018-09-14T18:50:02.976Z,17.20
2018-09-14T18:52:31.740Z,17.20
2018-09-14T18:55:00.012Z,17.10
2018-09-14T18:57:28.446Z,17.20
2018-09-14T18:59:56.907Z,17.10
2018-09-14T19:02:25.234Z,16.90
2018-09-14T19:04:53.664Z,16.80
2018-09-14T19:07:21.988Z,16.90
2018-09-14T19:09:50.319Z,16.80
2018-09-14T19:12:18.633Z,16.70
2018-09-14T19:14:47.012Z,16.70
2018-09-14T19:17:15.337Z,16.60
2018-09-14T19:19:43.649Z,16.50
2018-09-14T19:22:11.985Z,16.50
2018-09-14T19:24:40.474Z,16.60
2018-09-14T19:27:09.847Z,16.60
2018-09-14T19:29:48.088Z,16.60
2018-09-14T19:32:19.417Z,16.60
2018-09-14T19:34:50.450Z,16.80
2018-09-14T19:37:23.193Z,16.80
2018-09-14T19:39:55.834Z,16.80
2018-09-14T19:42:38.792Z,16.80
2018-09-14T19:45:14.211Z,16.70
2018-09-14T19:50:50.462Z,16.90
2018-09-14T19:53:18.881Z,16.90
2018-09-14T19:55:47.249Z,16.90
2018-09-14T19:58:16.013Z,16.80
2018-09-14T20:00:46.429Z,16.70
2018-09-14T20:03:14.777Z,16.70
2018-09-14T20:05:43.760Z,16.60
2018-09-14T20:08:12.689Z,16.70
2018-09-14T20:10:41.627Z,16.70
2018-09-14T20:13:10.421Z,16.60
2018-09-14T20:15:38.804Z,16.70
2018-09-14T20:18:07.197Z,16.70
2018-09-14T20:20:39.640Z,16.70
2018-09-14T20:23:07.981Z,16.60
2018-09-14T20:25:36.332Z,16.60
2018-09-14T20:28:04.941Z,16.60
2018-09-14T20:30:33.268Z,16.50
2018-09-14T20:33:01.579Z,16.40
2018-09-14T20:35:29.985Z,16.40
2018-09-14T20:37:58.665Z,16.50
2018-09-14T20:40:26.997Z,16.50
2018-09-14T20:42:55.343Z,16.60
2018-09-14T20:45:23.651Z,16.60
2018-09-14T20:47:52.006Z,16.60
2018-09-14T20:50:20.486Z,16.50
2018-09-14T20:52:48.801Z,16.50
2018-09-14T20:55:17.242Z,16.50
2018-09-14T20:57:45.549Z,16.50
2018-09-14T21:00:16.984Z,16.50
2018-09-14T21:02:45.612Z,16.50
2018-09-14T21:05:14.001Z,16.50
2018-09-14T21:07:42.296Z,16.50
2018-09-14T21:10:10.623Z,16.50
2018-09-14T21:12:39.000Z,16.50
2018-09-14T21:15:07.393Z,16.40
2018-09-14T21:17:35.812Z,16.30
2018-09-14T21:20:04.744Z,16.20
2018-09-14T21:22:33.114Z,16.20
2018-09-14T21:25:01.430Z,16.00
2018-09-14T21:27:30.639Z,16.00
2018-09-14T21:29:58.989Z,16.10
2018-09-14T21:32:27.360Z,16.10
2018-09-14T21:34:55.747Z,16.20
2018-09-14T21:37:24.177Z,16.20
2018-09-14T21:39:53.674Z,16.20
2018-09-14T21:42:22.829Z,16.10
2018-09-14T21:44:51.158Z,16.10
2018-09-14T21:47:27.718Z,16.10
2018-09-14T21:49:56.092Z,16.10
2018-09-14T21:52:24.410Z,16.20
2018-09-14T21:54:53.546Z,16.10
2018-09-14T21:57:21.904Z,16.20
2018-09-14T21:59:50.530Z,16.20
2018-09-14T22:02:18.917Z,16.10
2018-09-14T22:04:47.260Z,16.10
2018-09-14T22:07:15.594Z,16.10
2018-09-14T22:09:44.536Z,16.10
2018-09-14T22:12:12.978Z,16.10
2018-09-14T22:14:41.288Z,16.10
2018-09-14T22:17:09.617Z,16.10
2018-09-14T22:19:37.925Z,16.10
2018-09-14T22:22:06.386Z,16.00
2018-09-14T22:24:34.822Z,16.10
2018-09-14T22:27:03.133Z,16.10
2018-09-14T22:29:31.899Z,16.10
2018-09-14T22:32:00.205Z,16.00
2018-09-14T22:34:28.581Z,15.80
2018-09-14T22:36:56.904Z,15.80
2018-09-14T22:39:25.345Z,15.80
2018-09-14T22:41:53.721Z,15.80
2018-09-14T22:44:22.066Z,15.80
2018-09-14T22:46:50.477Z,15.90
2018-09-14T22:49:18.788Z,15.80
2018-09-14T22:51:47.128Z,15.60
2018-09-14T22:54:15.446Z,15.60
2018-09-14T22:56:43.782Z,15.60
2018-09-14T22:59:12.266Z,15.70
2018-09-14T23:01:41.220Z,15.80
2018-09-14T23:04:09.557Z,15.90
2018-09-14T23:06:37.885Z,15.90
2018-09-14T23:09:07.475Z,15.80
2018-09-14T23:11:35.794Z,15.80
2018-09-14T23:14:04.128Z,15.80
2018-09-14T23:16:32.568Z,15.80
2018-09-14T23:19:01.545Z,15.70
2018-09-14T23:21:29.935Z,15.70
2018-09-14T23:23:59.144Z,15.70
2018-09-14T23:26:28.112Z,15.70
2018-09-14T23:28:56.469Z,15.80
2018-09-14T23:31:24.828Z,15.80
2018-09-14T23:33:53.172Z,15.90
2018-09-14T23:36:21.552Z,16.00
2018-09-14T23:38:50.076Z,16.00
2018-09-14T23:41:18.398Z,16.00
2018-09-14T23:43:46.722Z,16.00
2018-09-14T23:46:15.115Z,15.90
2018-09-14T23:48:43.533Z,15.90
2018-09-14T23:51:11.856Z,15.80
2018-09-14T23:53:40.668Z,15.70
2018-09-14T23:56:09.002Z,15.70
2018-09-14T23:58:37.312Z,15.70
